sensor_id;sensor_type;location;lat;lon;timestamp;P1;durP1;ratioP1;P2;durP2;ratioP2
48845;SDS011;34665;51.886;5.436;2023-02-28T00:00:10;8.23;;;5.05;;
48845;SDS011;34665;51.886;5.436;2023-02-28T00:02:37;7.93;;;4.00;;
48845;SDS011;34665;51.886;5.436;2023-02-28T00:05:04;6.70;;;3.72;;
48845;SDS011;34665;51.886;5.436;2023-02-28T00:07:30;8.77;;;3.80;;
48845;SDS011;34665;51.886;5.436;2023-02-28T00:09:56;7.05;;;3.40;;
48845;SDS011;34665;51.886;5.436;2023-02-28T00:12:22;7.95;;;4.07;;
48845;SDS011;34665;51.886;5.436;2023-02-28T00:14:49;5.30;;;3.13;;
48845;SDS011;34665;51.886;5.436;2023-02-28T00:17:14;7.90;;;3.83;;
48845;SDS011;34665;51.886;5.436;2023-02-28T00:22:06;10.40;;;3.90;;
48845;SDS011;34665;51.886;5.436;2023-02-28T00:24:32;10.83;;;3.23;;
48845;SDS011;34665;51.886;5.436;2023-02-28T00:26:57;4.53;;;3.10;;
48845;SDS011;34665;51.886;5.436;2023-02-28T00:29:23;9.03;;;3.17;;
48845;SDS011;34665;51.886;5.436;2023-02-28T00:31:48;9.43;;;3.53;;
48845;SDS011;34665;51.886;5.436;2023-02-28T00:34:13;16.27;;;6.43;;
48845;SDS011;34665;51.886;5.436;2023-02-28T00:36:40;8.65;;;4.05;;
48845;SDS011;34665;51.886;5.436;2023-02-28T00:39:09;8.63;;;3.58;;
48845;SDS011;34665;51.886;5.436;2023-02-28T00:41:34;8.63;;;4.23;;
48845;SDS011;34665;51.886;5.436;2023-02-28T00:43:59;9.07;;;3.73;;
48845;SDS011;34665;51.886;5.436;2023-02-28T00:46:25;11.25;;;3.70;;
48845;SDS011;34665;51.886;5.436;2023-02-28T00:48:50;6.93;;;3.60;;
48845;SDS011;34665;51.886;5.436;2023-02-28T00:51:16;7.40;;;3.50;;
48845;SDS011;34665;51.886;5.436;2023-02-28T00:53:42;3.72;;;2.47;;
48845;SDS011;34665;51.886;5.436;2023-02-28T00:56:07;10.40;;;3.67;;
48845;SDS011;34665;51.886;5.436;2023-02-28T00:58:33;10.13;;;3.25;;
48845;SDS011;34665;51.886;5.436;2023-02-28T01:00:58;6.20;;;3.40;;
48845;SDS011;34665;51.886;5.436;2023-02-28T01:03:24;9.60;;;3.17;;
48845;SDS011;34665;51.886;5.436;2023-02-28T01:05:49;7.72;;;3.53;;
48845;SDS011;34665;51.886;5.436;2023-02-28T01:08:15;7.20;;;3.15;;
48845;SDS011;34665;51.886;5.436;2023-02-28T01:10:41;6.90;;;3.23;;
48845;SDS011;34665;51.886;5.436;2023-02-28T01:13:07;9.95;;;3.92;;
48845;SDS011;34665;51.886;5.436;2023-02-28T01:15:35;7.53;;;4.15;;
48845;SDS011;34665;51.886;5.436;2023-02-28T01:18:01;10.03;;;3.97;;
48845;SDS011;34665;51.886;5.436;2023-02-28T01:20:26;7.93;;;3.63;;
48845;SDS011;34665;51.886;5.436;2023-02-28T01:22:53;8.65;;;3.22;;
48845;SDS011;34665;51.886;5.436;2023-02-28T01:25:18;6.90;;;3.27;;
48845;SDS011;34665;51.886;5.436;2023-02-28T01:27:44;9.03;;;3.83;;
48845;SDS011;34665;51.886;5.436;2023-02-28T01:30:09;8.93;;;4.70;;
48845;SDS011;34665;51.886;5.436;2023-02-28T01:32:36;6.43;;;3.40;;
48845;SDS011;34665;51.886;5.436;2023-02-28T01:35:02;7.70;;;3.90;;
48845;SDS011;34665;51.886;5.436;2023-02-28T01:37:27;12.27;;;5.00;;
48845;SDS011;34665;51.886;5.436;2023-02-28T01:39:54;7.75;;;3.47;;
48845;SDS011;34665;51.886;5.436;2023-02-28T01:42:19;9.10;;;4.23;;
48845;SDS011;34665;51.886;5.436;2023-02-28T01:44:57;8.38;;;3.30;;
48845;SDS011;34665;51.886;5.436;2023-02-28T01:47:24;14.02;;;4.28;;
48845;SDS011;34665;51.886;5.436;2023-02-28T01:49:55;7.50;;;3.70;;
48845;SDS011;34665;51.886;5.436;2023-02-28T01:52:23;6.00;;;3.22;;
48845;SDS011;34665;51.886;5.436;2023-02-28T01:54:54;7.72;;;3.47;;
48845;SDS011;34665;51.886;5.436;2023-02-28T01:57:23;7.82;;;3.63;;
48845;SDS011;34665;51.886;5.436;2023-02-28T01:59:56;6.43;;;3.30;;
48845;SDS011;34665;51.886;5.436;2023-02-28T02:02:25;8.00;;;3.45;;
48845;SDS011;34665;51.886;5.436;2023-02-28T02:05:15;6.95;;;3.80;;
48845;SDS011;34665;51.886;5.436;2023-02-28T02:07:46;9.30;;;3.95;;
48845;SDS011;34665;51.886;5.436;2023-02-28T02:10:17;7.35;;;3.92;;
48845;SDS011;34665;51.886;5.436;2023-02-28T02:13:03;9.45;;;3.15;;
48845;SDS011;34665;51.886;5.436;2023-02-28T02:15:32;9.23;;;4.00;;
48845;SDS011;34665;51.886;5.436;2023-02-28T02:18:01;9.77;;;3.80;;
48845;SDS011;34665;51.886;5.436;2023-02-28T02:20:51;10.05;;;3.85;;
48845;SDS011;34665;51.886;5.436;2023-02-28T02:23:31;11.27;;;4.13;;
48845;SDS011;34665;51.886;5.436;2023-02-28T02:29:10;7.95;;;4.03;;
48845;SDS011;34665;51.886;5.436;2023-02-28T02:37:51;9.55;;;4.13;;
48845;SDS011;34665;51.886;5.436;2023-02-28T02:39:58;7.10;;;3.20;;
48845;SDS011;34665;51.886;5.436;2023-02-28T02:45:31;9.85;;;4.70;;
48845;SDS011;34665;51.886;5.436;2023-02-28T02:48:02;12.82;;;4.18;;
48845;SDS011;34665;51.886;5.436;2023-02-28T02:50:37;7.97;;;4.05;;
48845;SDS011;34665;51.886;5.436;2023-02-28T02:53:05;9.90;;;3.80;;
48845;SDS011;34665;51.886;5.436;2023-02-28T02:55:35;8.27;;;3.85;;
48845;SDS011;34665;51.886;5.436;2023-02-28T02:58:16;8.15;;;4.03;;
48845;SDS011;34665;51.886;5.436;2023-02-28T03:00:50;8.02;;;3.47;;
48845;SDS011;34665;51.886;5.436;2023-02-28T03:03:19;7.88;;;3.80;;
48845;SDS011;34665;51.886;5.436;2023-02-28T03:05:55;13.30;;;4.35;;
48845;SDS011;34665;51.886;5.436;2023-02-28T03:08:25;11.02;;;4.45;;
48845;SDS011;34665;51.886;5.436;2023-02-28T03:10:58;8.90;;;4.28;;
48845;SDS011;34665;51.886;5.436;2023-02-28T03:13:42;8.70;;;4.07;;
48845;SDS011;34665;51.886;5.436;2023-02-28T03:19:47;8.23;;;4.30;;
48845;SDS011;34665;51.886;5.436;2023-02-28T03:24:25;7.93;;;4.32;;
48845;SDS011;34665;51.886;5.436;2023-02-28T03:27:04;13.45;;;4.22;;
48845;SDS011;34665;51.886;5.436;2023-02-28T03:29:35;13.50;;;4.55;;
48845;SDS011;34665;51.886;5.436;2023-02-28T03:32:15;10.60;;;4.93;;
48845;SDS011;34665;51.886;5.436;2023-02-28T03:34:55;9.57;;;4.03;;
48845;SDS011;34665;51.886;5.436;2023-02-28T03:37:26;12.63;;;5.53;;
48845;SDS011;34665;51.886;5.436;2023-02-28T03:39:59;10.45;;;4.28;;
48845;SDS011;34665;51.886;5.436;2023-02-28T03:42:32;7.45;;;4.28;;
48845;SDS011;34665;51.886;5.436;2023-02-28T03:45:05;11.57;;;4.75;;
48845;SDS011;34665;51.886;5.436;2023-02-28T03:47:45;9.48;;;4.38;;
48845;SDS011;34665;51.886;5.436;2023-02-28T03:50:22;9.48;;;4.10;;
48845;SDS011;34665;51.886;5.436;2023-02-28T03:55:26;13.48;;;4.90;;
48845;SDS011;34665;51.886;5.436;2023-02-28T04:00:57;7.50;;;4.50;;
48845;SDS011;34665;51.886;5.436;2023-02-28T04:03:36;10.18;;;4.30;;
48845;SDS011;34665;51.886;5.436;2023-02-28T04:06:03;8.98;;;4.38;;
48845;SDS011;34665;51.886;5.436;2023-02-28T04:08:31;9.13;;;4.20;;
48845;SDS011;34665;51.886;5.436;2023-02-28T04:10:59;8.37;;;3.93;;
48845;SDS011;34665;51.886;5.436;2023-02-28T04:13:29;9.20;;;4.25;;
48845;SDS011;34665;51.886;5.436;2023-02-28T04:15:54;8.43;;;3.90;;
48845;SDS011;34665;51.886;5.436;2023-02-28T04:18:20;8.18;;;3.88;;
48845;SDS011;34665;51.886;5.436;2023-02-28T04:20:45;6.73;;;3.43;;
48845;SDS011;34665;51.886;5.436;2023-02-28T04:23:11;7.10;;;4.07;;
48845;SDS011;34665;51.886;5.436;2023-02-28T04:25:36;11.27;;;4.13;;
48845;SDS011;34665;51.886;5.436;2023-02-28T04:28:02;8.37;;;3.90;;
48845;SDS011;34665;51.886;5.436;2023-02-28T04:30:27;10.13;;;3.28;;
48845;SDS011;34665;51.886;5.436;2023-02-28T04:32:54;8.70;;;3.60;;
48845;SDS011;34665;51.886;5.436;2023-02-28T04:35:20;6.10;;;2.47;;
48845;SDS011;34665;51.886;5.436;2023-02-28T04:37:45;7.00;;;2.80;;
48845;SDS011;34665;51.886;5.436;2023-02-28T04:40:11;6.03;;;2.83;;
48845;SDS011;34665;51.886;5.436;2023-02-28T04:42:36;5.97;;;2.60;;
48845;SDS011;34665;51.886;5.436;2023-02-28T04:45:02;4.60;;;2.67;;
48845;SDS011;34665;51.886;5.436;2023-02-28T04:49:54;4.83;;;2.63;;
48845;SDS011;34665;51.886;5.436;2023-02-28T04:52:19;5.00;;;2.40;;
48845;SDS011;34665;51.886;5.436;2023-02-28T04:54:45;8.57;;;3.50;;
48845;SDS011;34665;51.886;5.436;2023-02-28T04:57:10;3.93;;;2.33;;
48845;SDS011;34665;51.886;5.436;2023-02-28T04:59:36;4.30;;;2.33;;
48845;SDS011;34665;51.886;5.436;2023-02-28T05:02:01;7.73;;;1.93;;
48845;SDS011;34665;51.886;5.436;2023-02-28T05:04:32;4.40;;;2.20;;
48845;SDS011;34665;51.886;5.436;2023-02-28T05:07:00;4.05;;;2.10;;
48845;SDS011;34665;51.886;5.436;2023-02-28T05:09:27;4.32;;;1.85;;
48845;SDS011;34665;51.886;5.436;2023-02-28T05:11:53;4.72;;;2.15;;
48845;SDS011;34665;51.886;5.436;2023-02-28T05:14:20;4.40;;;2.05;;
48845;SDS011;34665;51.886;5.436;2023-02-28T05:16:45;4.53;;;2.10;;
48845;SDS011;34665;51.886;5.436;2023-02-28T05:19:11;3.78;;;1.80;;
48845;SDS011;34665;51.886;5.436;2023-02-28T05:21:40;4.07;;;2.27;;
48845;SDS011;34665;51.886;5.436;2023-02-28T05:24:13;7.22;;;2.00;;
48845;SDS011;34665;51.886;5.436;2023-02-28T05:26:42;13.83;;;2.40;;
48845;SDS011;34665;51.886;5.436;2023-02-28T05:29:08;5.00;;;1.83;;
48845;SDS011;34665;51.886;5.436;2023-02-28T05:31:35;6.75;;;2.13;;
48845;SDS011;34665;51.886;5.436;2023-02-28T05:34:01;2.72;;;1.63;;
48845;SDS011;34665;51.886;5.436;2023-02-28T05:36:26;5.63;;;1.88;;
48845;SDS011;34665;51.886;5.436;2023-02-28T05:38:53;7.40;;;2.13;;
48845;SDS011;34665;51.886;5.436;2023-02-28T05:41:18;8.90;;;2.60;;
48845;SDS011;34665;51.886;5.436;2023-02-28T05:43:45;8.75;;;3.10;;
48845;SDS011;34665;51.886;5.436;2023-02-28T05:46:12;6.95;;;2.42;;
48845;SDS011;34665;51.886;5.436;2023-02-28T05:48:38;6.13;;;2.70;;
48845;SDS011;34665;51.886;5.436;2023-02-28T05:53:31;8.13;;;2.50;;
48845;SDS011;34665;51.886;5.436;2023-02-28T05:55:57;4.45;;;2.13;;
48845;SDS011;34665;51.886;5.436;2023-02-28T05:58:23;3.33;;;2.05;;
48845;SDS011;34665;51.886;5.436;2023-02-28T06:00:51;7.10;;;2.58;;
48845;SDS011;34665;51.886;5.436;2023-02-28T06:03:16;8.93;;;2.80;;
48845;SDS011;34665;51.886;5.436;2023-02-28T06:05:42;4.60;;;2.93;;
48845;SDS011;34665;51.886;5.436;2023-02-28T06:08:07;5.60;;;2.93;;
48845;SDS011;34665;51.886;5.436;2023-02-28T06:10:33;9.00;;;3.20;;
48845;SDS011;34665;51.886;5.436;2023-02-28T06:13:01;13.55;;;3.15;;
48845;SDS011;34665;51.886;5.436;2023-02-28T06:15:28;5.80;;;3.17;;
48845;SDS011;34665;51.886;5.436;2023-02-28T06:17:54;5.63;;;2.38;;
48845;SDS011;34665;51.886;5.436;2023-02-28T06:20:21;5.38;;;2.50;;
48845;SDS011;34665;51.886;5.436;2023-02-28T06:22:48;7.17;;;2.40;;
48845;SDS011;34665;51.886;5.436;2023-02-28T06:25:13;5.30;;;2.40;;
48845;SDS011;34665;51.886;5.436;2023-02-28T06:27:39;8.63;;;3.30;;
48845;SDS011;34665;51.886;5.436;2023-02-28T06:30:04;16.40;;;3.23;;
48845;SDS011;34665;51.886;5.436;2023-02-28T06:32:30;11.88;;;3.00;;
48845;SDS011;34665;51.886;5.436;2023-02-28T06:34:56;8.67;;;3.50;;
48845;SDS011;34665;51.886;5.436;2023-02-28T06:39:51;6.40;;;3.15;;
48845;SDS011;34665;51.886;5.436;2023-02-28T06:42:17;3.58;;;2.13;;
48845;SDS011;34665;51.886;5.436;2023-02-28T06:44:43;6.30;;;2.70;;
48845;SDS011;34665;51.886;5.436;2023-02-28T06:47:08;7.53;;;3.07;;
48845;SDS011;34665;51.886;5.436;2023-02-28T06:49:34;5.93;;;2.57;;
48845;SDS011;34665;51.886;5.436;2023-02-28T06:52:01;4.85;;;2.47;;
48845;SDS011;34665;51.886;5.436;2023-02-28T06:54:27;7.47;;;2.53;;
48845;SDS011;34665;51.886;5.436;2023-02-28T06:56:53;6.30;;;2.50;;
48845;SDS011;34665;51.886;5.436;2023-02-28T06:59:20;8.48;;;2.58;;
48845;SDS011;34665;51.886;5.436;2023-02-28T07:01:46;4.82;;;2.85;;
48845;SDS011;34665;51.886;5.436;2023-02-28T07:04:11;6.70;;;2.37;;
48845;SDS011;34665;51.886;5.436;2023-02-28T07:06:38;7.25;;;3.33;;
48845;SDS011;34665;51.886;5.436;2023-02-28T07:09:04;5.90;;;3.53;;
48845;SDS011;34665;51.886;5.436;2023-02-28T07:11:31;6.28;;;3.20;;
48845;SDS011;34665;51.886;5.436;2023-02-28T07:13:57;10.05;;;2.75;;
48845;SDS011;34665;51.886;5.436;2023-02-28T07:16:23;6.00;;;2.80;;
48845;SDS011;34665;51.886;5.436;2023-02-28T07:18:51;3.85;;;2.35;;
48845;SDS011;34665;51.886;5.436;2023-02-28T07:21:17;7.05;;;3.20;;
48845;SDS011;34665;51.886;5.436;2023-02-28T07:23:43;11.83;;;3.30;;
48845;SDS011;34665;51.886;5.436;2023-02-28T07:26:13;5.07;;;2.60;;
48845;SDS011;34665;51.886;5.436;2023-02-28T07:28:41;3.30;;;2.40;;
48845;SDS011;34665;51.886;5.436;2023-02-28T07:31:07;7.18;;;2.78;;
48845;SDS011;34665;51.886;5.436;2023-02-28T07:33:33;5.18;;;2.58;;
48845;SDS011;34665;51.886;5.436;2023-02-28T07:36:00;5.88;;;2.60;;
48845;SDS011;34665;51.886;5.436;2023-02-28T07:38:27;5.03;;;3.20;;
48845;SDS011;34665;51.886;5.436;2023-02-28T07:40:52;9.33;;;3.10;;
48845;SDS011;34665;51.886;5.436;2023-02-28T07:43:18;13.57;;;3.23;;
48845;SDS011;34665;51.886;5.436;2023-02-28T07:45:43;5.67;;;2.63;;
48845;SDS011;34665;51.886;5.436;2023-02-28T07:48:08;8.07;;;2.67;;
48845;SDS011;34665;51.886;5.436;2023-02-28T07:50:35;9.88;;;2.05;;
48845;SDS011;34665;51.886;5.436;2023-02-28T07:53:00;3.83;;;1.80;;
48845;SDS011;34665;51.886;5.436;2023-02-28T07:55:26;5.75;;;2.47;;
48845;SDS011;34665;51.886;5.436;2023-02-28T07:57:51;4.37;;;2.17;;
48845;SDS011;34665;51.886;5.436;2023-02-28T08:00:17;3.13;;;2.23;;
48845;SDS011;34665;51.886;5.436;2023-02-28T08:02:42;5.38;;;2.13;;
48845;SDS011;34665;51.886;5.436;2023-02-28T08:05:08;5.60;;;2.87;;
48845;SDS011;34665;51.886;5.436;2023-02-28T08:07:33;4.57;;;1.83;;
48845;SDS011;34665;51.886;5.436;2023-02-28T08:09:59;3.33;;;2.27;;
48845;SDS011;34665;51.886;5.436;2023-02-28T08:12:25;6.78;;;2.13;;
48845;SDS011;34665;51.886;5.436;2023-02-28T08:14:50;6.10;;;2.10;;
48845;SDS011;34665;51.886;5.436;2023-02-28T08:17:16;5.70;;;1.88;;
48845;SDS011;34665;51.886;5.436;2023-02-28T08:19:41;5.17;;;2.00;;
48845;SDS011;34665;51.886;5.436;2023-02-28T08:22:07;4.32;;;2.10;;
48845;SDS011;34665;51.886;5.436;2023-02-28T08:24:32;3.83;;;1.80;;
48845;SDS011;34665;51.886;5.436;2023-02-28T08:26:58;5.33;;;2.27;;
48845;SDS011;34665;51.886;5.436;2023-02-28T08:29:24;5.70;;;2.10;;
48845;SDS011;34665;51.886;5.436;2023-02-28T08:31:49;5.37;;;2.17;;
48845;SDS011;34665;51.886;5.436;2023-02-28T08:34:15;2.87;;;1.80;;
48845;SDS011;34665;51.886;5.436;2023-02-28T08:36:42;4.07;;;1.83;;
48845;SDS011;34665;51.886;5.436;2023-02-28T08:39:09;3.40;;;1.73;;
48845;SDS011;34665;51.886;5.436;2023-02-28T08:41:35;4.63;;;1.90;;
48845;SDS011;34665;51.886;5.436;2023-02-28T08:44:01;8.90;;;2.20;;
48845;SDS011;34665;51.886;5.436;2023-02-28T08:46:27;5.93;;;1.70;;
48845;SDS011;34665;51.886;5.436;2023-02-28T08:48:55;5.43;;;1.90;;
48845;SDS011;34665;51.886;5.436;2023-02-28T08:51:25;4.63;;;2.10;;
48845;SDS011;34665;51.886;5.436;2023-02-28T08:54:00;3.50;;;1.90;;
48845;SDS011;34665;51.886;5.436;2023-02-28T08:56:26;3.92;;;1.85;;
48845;SDS011;34665;51.886;5.436;2023-02-28T08:58:53;7.65;;;1.60;;
48845;SDS011;34665;51.886;5.436;2023-02-28T09:01:24;4.13;;;2.00;;
48845;SDS011;34665;51.886;5.436;2023-02-28T09:03:55;4.20;;;1.80;;
48845;SDS011;34665;51.886;5.436;2023-02-28T09:06:22;2.78;;;1.80;;
48845;SDS011;34665;51.886;5.436;2023-02-28T09:08:51;3.55;;;1.77;;
48845;SDS011;34665;51.886;5.436;2023-02-28T09:11:16;4.10;;;1.90;;
48845;SDS011;34665;51.886;5.436;2023-02-28T09:13:44;5.30;;;1.55;;
48845;SDS011;34665;51.886;5.436;2023-02-28T09:16:12;5.25;;;1.83;;
48845;SDS011;34665;51.886;5.436;2023-02-28T09:18:39;7.95;;;2.25;;
48845;SDS011;34665;51.886;5.436;2023-02-28T09:21:09;3.30;;;1.92;;
48845;SDS011;34665;51.886;5.436;2023-02-28T09:23:38;3.63;;;1.90;;
48845;SDS011;34665;51.886;5.436;2023-02-28T09:26:03;2.57;;;1.67;;
48845;SDS011;34665;51.886;5.436;2023-02-28T09:28:30;4.60;;;1.73;;
48845;SDS011;34665;51.886;5.436;2023-02-28T09:30:56;4.82;;;1.50;;
48845;SDS011;34665;51.886;5.436;2023-02-28T09:33:25;5.33;;;1.80;;
48845;SDS011;34665;51.886;5.436;2023-02-28T09:35:57;1.95;;;1.48;;
48845;SDS011;34665;51.886;5.436;2023-02-28T09:38:25;2.17;;;1.50;;
48845;SDS011;34665;51.886;5.436;2023-02-28T09:40:57;5.93;;;1.93;;
48845;SDS011;34665;51.886;5.436;2023-02-28T09:43:34;8.87;;;1.90;;
48845;SDS011;34665;51.886;5.436;2023-02-28T09:46:12;1.90;;;1.60;;
48845;SDS011;34665;51.886;5.436;2023-02-28T09:49:00;5.80;;;1.60;;
48845;SDS011;34665;51.886;5.436;2023-02-28T09:51:33;2.13;;;1.50;;
48845;SDS011;34665;51.886;5.436;2023-02-28T09:53:59;7.53;;;1.47;;
48845;SDS011;34665;51.886;5.436;2023-02-28T09:56:26;3.85;;;1.80;;
48845;SDS011;34665;51.886;5.436;2023-02-28T10:04:54;6.87;;;1.80;;
48845;SDS011;34665;51.886;5.436;2023-02-28T10:09:56;2.27;;;1.50;;
48845;SDS011;34665;51.886;5.436;2023-02-28T10:12:27;3.57;;;1.87;;
48845;SDS011;34665;51.886;5.436;2023-02-28T10:14:55;3.60;;;1.50;;
48845;SDS011;34665;51.886;5.436;2023-02-28T10:17:26;2.67;;;1.50;;
48845;SDS011;34665;51.886;5.436;2023-02-28T10:19:58;2.47;;;1.40;;
48845;SDS011;34665;51.886;5.436;2023-02-28T10:25:33;3.10;;;1.40;;
48845;SDS011;34665;51.886;5.436;2023-02-28T10:28:05;4.60;;;1.60;;
48845;SDS011;34665;51.886;5.436;2023-02-28T10:30:36;3.77;;;1.57;;
48845;SDS011;34665;51.886;5.436;2023-02-28T10:33:05;4.10;;;1.40;;
48845;SDS011;34665;51.886;5.436;2023-02-28T10:35:30;4.70;;;1.67;;
48845;SDS011;34665;51.886;5.436;2023-02-28T10:37:59;8.20;;;1.77;;
48845;SDS011;34665;51.886;5.436;2023-02-28T10:40:34;3.07;;;1.73;;
48845;SDS011;34665;51.886;5.436;2023-02-28T10:45:34;2.38;;;1.60;;
48845;SDS011;34665;51.886;5.436;2023-02-28T10:58:49;3.13;;;1.43;;
48845;SDS011;34665;51.886;5.436;2023-02-28T11:03:49;3.67;;;1.50;;
48845;SDS011;34665;51.886;5.436;2023-02-28T11:06:17;4.47;;;1.20;;
48845;SDS011;34665;51.886;5.436;2023-02-28T11:11:16;4.40;;;2.50;;
48845;SDS011;34665;51.886;5.436;2023-02-28T11:13:42;3.72;;;1.92;;
48845;SDS011;34665;51.886;5.436;2023-02-28T11:16:10;2.57;;;1.30;;
48845;SDS011;34665;51.886;5.436;2023-02-28T11:18:42;2.67;;;1.40;;
48845;SDS011;34665;51.886;5.436;2023-02-28T11:21:24;2.40;;;1.30;;
48845;SDS011;34665;51.886;5.436;2023-02-28T11:24:00;4.53;;;2.20;;
48845;SDS011;34665;51.886;5.436;2023-02-28T11:26:36;7.07;;;2.30;;
48845;SDS011;34665;51.886;5.436;2023-02-28T11:29:19;3.83;;;1.67;;
48845;SDS011;34665;51.886;5.436;2023-02-28T11:39:29;2.10;;;1.27;;
48845;SDS011;34665;51.886;5.436;2023-02-28T11:47:03;2.00;;;1.20;;
48845;SDS011;34665;51.886;5.436;2023-02-28T11:49:33;3.28;;;1.52;;
48845;SDS011;34665;51.886;5.436;2023-02-28T11:52:16;2.55;;;1.38;;
48845;SDS011;34665;51.886;5.436;2023-02-28T12:00:35;4.55;;;1.55;;
48845;SDS011;34665;51.886;5.436;2023-02-28T12:08:49;4.32;;;1.65;;
48845;SDS011;34665;51.886;5.436;2023-02-28T12:11:33;6.47;;;1.58;;
48845;SDS011;34665;51.886;5.436;2023-02-28T12:26:15;2.70;;;1.70;;
48845;SDS011;34665;51.886;5.436;2023-02-28T12:28:51;5.85;;;1.60;;
48845;SDS011;34665;51.886;5.436;2023-02-28T12:31:26;3.83;;;1.90;;
48845;SDS011;34665;51.886;5.436;2023-02-28T12:33:59;6.40;;;1.73;;
48845;SDS011;34665;51.886;5.436;2023-02-28T12:36:28;4.05;;;1.55;;
48845;SDS011;34665;51.886;5.436;2023-02-28T12:39:05;2.42;;;1.42;;
48845;SDS011;34665;51.886;5.436;2023-02-28T12:41:42;2.30;;;1.65;;
48845;SDS011;34665;51.886;5.436;2023-02-28T12:44:17;3.63;;;1.75;;
48845;SDS011;34665;51.886;5.436;2023-02-28T12:46:49;2.83;;;1.42;;
48845;SDS011;34665;51.886;5.436;2023-02-28T12:49:21;5.30;;;1.40;;
48845;SDS011;34665;51.886;5.436;2023-02-28T12:51:56;6.85;;;2.03;;
48845;SDS011;34665;51.886;5.436;2023-02-28T12:54:26;2.80;;;1.40;;
48845;SDS011;34665;51.886;5.436;2023-02-28T12:57:15;2.58;;;1.33;;
48845;SDS011;34665;51.886;5.436;2023-02-28T12:59:55;3.92;;;1.38;;
48845;SDS011;34665;51.886;5.436;2023-02-28T13:10:53;3.05;;;1.63;;
48845;SDS011;34665;51.886;5.436;2023-02-28T13:13:20;2.75;;;1.73;;
48845;SDS011;34665;51.886;5.436;2023-02-28T13:15:58;10.55;;;1.80;;
48845;SDS011;34665;51.886;5.436;2023-02-28T13:26:21;5.60;;;1.80;;
48845;SDS011;34665;51.886;5.436;2023-02-28T13:31:26;2.72;;;1.85;;
48845;SDS011;34665;51.886;5.436;2023-02-28T13:39:44;2.23;;;1.50;;
48845;SDS011;34665;51.886;5.436;2023-02-28T13:42:12;2.67;;;1.58;;
48845;SDS011;34665;51.886;5.436;2023-02-28T13:47:29;6.13;;;2.00;;
48845;SDS011;34665;51.886;5.436;2023-02-28T13:50:13;4.78;;;1.80;;
48845;SDS011;34665;51.886;5.436;2023-02-28T13:52:55;3.17;;;1.75;;
48845;SDS011;34665;51.886;5.436;2023-02-28T13:58:21;6.70;;;2.55;;
48845;SDS011;34665;51.886;5.436;2023-02-28T14:01:15;3.35;;;1.60;;
48845;SDS011;34665;51.886;5.436;2023-02-28T14:08:54;7.97;;;1.80;;
48845;SDS011;34665;51.886;5.436;2023-02-28T14:11:28;15.02;;;1.92;;
48845;SDS011;34665;51.886;5.436;2023-02-28T14:13:56;4.72;;;2.20;;
48845;SDS011;34665;51.886;5.436;2023-02-28T14:16:23;4.32;;;1.90;;
48845;SDS011;34665;51.886;5.436;2023-02-28T14:19:00;7.32;;;2.05;;
48845;SDS011;34665;51.886;5.436;2023-02-28T14:21:32;2.85;;;1.65;;
48845;SDS011;34665;51.886;5.436;2023-02-28T14:24:20;2.75;;;1.50;;
48845;SDS011;34665;51.886;5.436;2023-02-28T14:26:56;3.75;;;1.80;;
48845;SDS011;34665;51.886;5.436;2023-02-28T14:37:43;3.92;;;1.92;;
48845;SDS011;34665;51.886;5.436;2023-02-28T14:40:16;3.92;;;1.65;;
48845;SDS011;34665;51.886;5.436;2023-02-28T14:42:54;2.15;;;1.40;;
48845;SDS011;34665;51.886;5.436;2023-02-28T14:45:22;4.15;;;1.45;;
48845;SDS011;34665;51.886;5.436;2023-02-28T14:47:49;4.18;;;1.63;;
48845;SDS011;34665;51.886;5.436;2023-02-28T14:50:23;2.63;;;1.80;;
48845;SDS011;34665;51.886;5.436;2023-02-28T14:52:53;4.53;;;1.70;;
48845;SDS011;34665;51.886;5.436;2023-02-28T14:55:23;4.05;;;1.45;;
48845;SDS011;34665;51.886;5.436;2023-02-28T14:57:52;4.23;;;1.40;;
48845;SDS011;34665;51.886;5.436;2023-02-28T15:00:27;2.30;;;1.37;;
48845;SDS011;34665;51.886;5.436;2023-02-28T15:02:58;3.70;;;1.67;;
48845;SDS011;34665;51.886;5.436;2023-02-28T15:05:34;2.43;;;1.80;;
48845;SDS011;34665;51.886;5.436;2023-02-28T15:08:01;2.43;;;1.63;;
48845;SDS011;34665;51.886;5.436;2023-02-28T15:10:35;3.57;;;1.70;;
48845;SDS011;34665;51.886;5.436;2023-02-28T15:13:07;3.47;;;1.70;;
48845;SDS011;34665;51.886;5.436;2023-02-28T15:15:40;4.10;;;2.10;;
48845;SDS011;34665;51.886;5.436;2023-02-28T15:18:14;5.65;;;2.00;;
48845;SDS011;34665;51.886;5.436;2023-02-28T15:20:48;4.87;;;1.90;;
48845;SDS011;34665;51.886;5.436;2023-02-28T15:23:16;2.50;;;1.40;;
48845;SDS011;34665;51.886;5.436;2023-02-28T15:25:43;3.53;;;1.63;;
48845;SDS011;34665;51.886;5.436;2023-02-28T15:30:49;8.33;;;1.80;;
48845;SDS011;34665;51.886;5.436;2023-02-28T15:35:44;2.67;;;1.63;;
48845;SDS011;34665;51.886;5.436;2023-02-28T15:40:36;5.97;;;2.13;;
48845;SDS011;34665;51.886;5.436;2023-02-28T15:43:14;3.83;;;2.00;;
48845;SDS011;34665;51.886;5.436;2023-02-28T15:45:50;4.10;;;1.87;;
48845;SDS011;34665;51.886;5.436;2023-02-28T15:48:22;3.23;;;1.80;;
48845;SDS011;34665;51.886;5.436;2023-02-28T15:56:23;7.77;;;2.23;;
48845;SDS011;34665;51.886;5.436;2023-02-28T15:58:54;3.63;;;1.83;;
48845;SDS011;34665;51.886;5.436;2023-02-28T16:01:29;3.33;;;1.87;;
48845;SDS011;34665;51.886;5.436;2023-02-28T16:03:59;5.40;;;2.03;;
48845;SDS011;34665;51.886;5.436;2023-02-28T16:06:32;3.07;;;1.80;;
48845;SDS011;34665;51.886;5.436;2023-02-28T16:08:59;3.60;;;1.93;;
48845;SDS011;34665;51.886;5.436;2023-02-28T16:11:24;5.72;;;2.33;;
48845;SDS011;34665;51.886;5.436;2023-02-28T16:13:50;5.95;;;2.20;;
48845;SDS011;34665;51.886;5.436;2023-02-28T16:16:18;8.53;;;2.23;;
48845;SDS011;34665;51.886;5.436;2023-02-28T16:18:46;4.53;;;2.50;;
48845;SDS011;34665;51.886;5.436;2023-02-28T16:21:11;5.47;;;2.17;;
48845;SDS011;34665;51.886;5.436;2023-02-28T16:23:36;3.90;;;1.93;;
48845;SDS011;34665;51.886;5.436;2023-02-28T16:26:02;5.45;;;3.03;;
48845;SDS011;34665;51.886;5.436;2023-02-28T16:28:29;4.10;;;2.20;;
48845;SDS011;34665;51.886;5.436;2023-02-28T16:31:01;5.27;;;2.13;;
48845;SDS011;34665;51.886;5.436;2023-02-28T16:33:28;5.77;;;2.20;;
48845;SDS011;34665;51.886;5.436;2023-02-28T16:35:55;5.53;;;2.27;;
48845;SDS011;34665;51.886;5.436;2023-02-28T16:38:20;8.27;;;2.83;;
48845;SDS011;34665;51.886;5.436;2023-02-28T16:40:49;4.70;;;2.37;;
48845;SDS011;34665;51.886;5.436;2023-02-28T16:43:16;6.37;;;2.97;;
48845;SDS011;34665;51.886;5.436;2023-02-28T16:45:45;5.57;;;2.87;;
48845;SDS011;34665;51.886;5.436;2023-02-28T16:48:11;9.30;;;3.95;;
48845;SDS011;34665;51.886;5.436;2023-02-28T16:50:39;8.25;;;4.28;;
48845;SDS011;34665;51.886;5.436;2023-02-28T16:53:04;15.43;;;3.53;;
48845;SDS011;34665;51.886;5.436;2023-02-28T16:55:29;8.03;;;3.87;;
48845;SDS011;34665;51.886;5.436;2023-02-28T16:57:56;10.27;;;4.10;;
48845;SDS011;34665;51.886;5.436;2023-02-28T17:00:24;7.55;;;3.75;;
48845;SDS011;34665;51.886;5.436;2023-02-28T17:02:50;6.60;;;3.42;;
48845;SDS011;34665;51.886;5.436;2023-02-28T17:05:16;7.20;;;3.38;;
48845;SDS011;34665;51.886;5.436;2023-02-28T17:07:42;5.80;;;2.80;;
48845;SDS011;34665;51.886;5.436;2023-02-28T17:10:11;6.38;;;3.20;;
48845;SDS011;34665;51.886;5.436;2023-02-28T17:12:39;5.25;;;2.90;;
48845;SDS011;34665;51.886;5.436;2023-02-28T17:15:05;5.60;;;3.03;;
48845;SDS011;34665;51.886;5.436;2023-02-28T17:17:31;6.80;;;2.95;;
48845;SDS011;34665;51.886;5.436;2023-02-28T17:19:57;9.93;;;4.30;;
48845;SDS011;34665;51.886;5.436;2023-02-28T17:22:22;5.63;;;3.47;;
48845;SDS011;34665;51.886;5.436;2023-02-28T17:24:48;10.25;;;3.40;;
48845;SDS011;34665;51.886;5.436;2023-02-28T17:27:14;6.90;;;3.40;;
48845;SDS011;34665;51.886;5.436;2023-02-28T17:29:39;7.77;;;3.20;;
48845;SDS011;34665;51.886;5.436;2023-02-28T17:32:05;9.80;;;3.30;;